createdAt,value
2023-03-11T00:02:27.285Z,87.91
2023-03-11T00:04:57.154Z,88.21
2023-03-11T00:07:26.979Z,87.33
2023-03-11T00:09:57.049Z,86.92
2023-03-11T00:12:26.570Z,86.20
2023-03-11T00:14:56.351Z,85.83
2023-03-11T00:17:26.212Z,85.39
2023-03-11T00:19:55.988Z,85.48
2023-03-11T00:22:25.443Z,83.92
2023-03-11T00:24:55.244Z,83.71
2023-03-11T00:27:25.037Z,83.69
2023-03-11T00:29:54.782Z,82.86
2023-03-11T00:32:24.633Z,82.41
2023-03-11T00:34:54.701Z,82.09
2023-03-11T00:37:24.475Z,81.06
2023-03-11T00:39:54.517Z,80.07
2023-03-11T00:42:24.351Z,81.07
2023-03-11T00:44:54.123Z,80.75
2023-03-11T00:47:23.932Z,80.77
2023-03-11T00:49:54.025Z,82.21
2023-03-11T00:52:23.915Z,80.13
2023-03-11T00:54:54.105Z,79.45
2023-03-11T00:57:24.427Z,79.46
2023-03-11T00:59:54.423Z,80.34
2023-03-11T01:02:24.522Z,80.27
2023-03-11T01:04:57.418Z,79.45
2023-03-11T01:07:27.292Z,80.37
2023-03-11T01:09:57.380Z,80.76
2023-03-11T01:12:27.150Z,78.95
2023-03-11T01:14:57.324Z,79.38
2023-03-11T01:17:27.445Z,80.13
2023-03-11T01:19:57.651Z,79.75
2023-03-11T01:22:27.205Z,80.28
2023-03-11T01:24:57.415Z,80.45
2023-03-11T01:27:28.403Z,80.41
2023-03-11T01:29:58.527Z,78.91
2023-03-11T01:32:28.451Z,78.91
2023-03-11T01:34:58.224Z,78.87
2023-03-11T01:37:28.284Z,79.25
2023-03-11T01:39:58.413Z,78.46
2023-03-11T01:42:28.224Z,78.25
2023-03-11T01:44:58.458Z,77.33
2023-03-11T01:47:41.208Z,77.83
2023-03-11T01:50:13.865Z,77.51
2023-03-11T01:52:45.434Z,76.63
2023-03-11T01:55:17.956Z,76.63
2023-03-11T01:57:49.475Z,77.72
2023-03-11T02:00:19.916Z,77.53
2023-03-11T02:02:55.952Z,77.90
2023-03-11T02:05:26.844Z,75.81
2023-03-11T02:07:57.115Z,77.49
2023-03-11T02:10:28.585Z,77.53
2023-03-11T02:12:58.861Z,77.72
2023-03-11T02:15:30.677Z,77.25
2023-03-11T02:18:03.005Z,76.88
2023-03-11T02:20:38.322Z,76.29
2023-03-11T02:23:10.488Z,77.38
2023-03-11T02:25:49.176Z,77.14
2023-03-11T02:28:21.496Z,76.46
2023-03-11T02:30:53.255Z,75.67
2023-03-11T02:33:25.708Z,76.91
2023-03-11T02:35:55.561Z,76.91
2023-03-11T02:38:25.872Z,75.59
2023-03-11T02:41:01.818Z,76.59
2023-03-11T02:43:43.466Z,76.51
2023-03-11T02:46:15.981Z,76.19
2023-03-11T02:52:09.128Z,74.81
2023-03-11T02:54:39.127Z,76.96
2023-03-11T02:57:09.264Z,74.75
2023-03-11T02:59:39.184Z,74.58
2023-03-11T03:02:10.463Z,73.57
2023-03-11T03:04:41.114Z,73.01
2023-03-11T03:07:11.211Z,73.01
2023-03-11T03:09:41.644Z,74.45
2023-03-11T03:12:13.232Z,73.01
2023-03-11T03:14:43.130Z,74.56
2023-03-11T03:17:13.245Z,73.78
2023-03-11T03:19:43.337Z,74.22
2023-03-11T03:22:16.621Z,72.68
2023-03-11T03:24:47.812Z,74.15
2023-03-11T03:27:17.971Z,74.74
2023-03-11T03:29:48.089Z,74.95
2023-03-11T03:32:17.971Z,74.95
2023-03-11T03:34:48.147Z,75.85
2023-03-11T03:37:18.099Z,75.11
2023-03-11T03:39:47.926Z,75.15
2023-03-11T03:42:17.736Z,75.58
2023-03-11T03:44:47.865Z,76.64
2023-03-11T03:47:17.673Z,74.71
2023-03-11T03:49:47.646Z,75.04
2023-03-11T03:52:17.294Z,75.57
2023-03-11T03:54:47.793Z,75.49
2023-03-11T03:57:17.677Z,75.16
2023-03-11T03:59:48.317Z,75.47
2023-03-11T04:02:18.237Z,75.22
2023-03-11T04:04:48.973Z,76.13
2023-03-11T04:07:18.954Z,75.48
2023-03-11T04:09:49.133Z,75.48
2023-03-11T04:12:19.154Z,76.12
2023-03-11T04:14:49.231Z,76.46
2023-03-11T04:17:20.620Z,77.09
2023-03-11T04:19:51.285Z,78.82
2023-03-11T04:22:21.416Z,77.81
2023-03-11T04:24:51.625Z,78.97
2023-03-11T04:27:21.468Z,79.03
2023-03-11T04:29:52.412Z,79.93
2023-03-11T04:32:22.976Z,79.38
2023-03-11T04:34:52.810Z,79.91
2023-03-11T04:37:22.563Z,81.27
2023-03-11T04:39:53.403Z,80.60
2023-03-11T04:42:23.518Z,80.41
2023-03-11T04:44:53.529Z,80.20
2023-03-11T04:47:23.927Z,81.46
2023-03-11T04:49:56.029Z,81.92
2023-03-11T04:52:26.407Z,81.18
2023-03-11T04:54:56.732Z,81.09
2023-03-11T04:57:26.872Z,81.00
2023-03-11T04:59:58.652Z,81.00
2023-03-11T05:02:28.584Z,81.49
2023-03-11T05:05:00.461Z,81.49
2023-03-11T05:07:30.841Z,83.59
2023-03-11T05:10:01.523Z,83.10
2023-03-11T05:12:33.254Z,82.92
2023-03-11T05:15:03.465Z,84.39
2023-03-11T05:17:33.692Z,82.71
2023-03-11T05:20:05.646Z,82.60
2023-03-11T05:22:36.073Z,83.17
2023-03-11T05:25:08.235Z,81.56
2023-03-11T05:27:38.976Z,84.40
2023-03-11T05:30:11.150Z,84.90
2023-03-11T05:32:41.783Z,85.25
2023-03-11T05:35:11.709Z,85.87
2023-03-11T05:37:42.508Z,84.80
2023-03-11T05:40:13.302Z,85.77
2023-03-11T05:42:43.329Z,84.79
2023-03-11T05:45:14.618Z,83.96
2023-03-11T05:47:45.683Z,84.02
2023-03-11T05:50:18.018Z,83.93
2023-03-11T05:52:48.229Z,84.84
2023-03-11T05:55:18.112Z,84.15
2023-03-11T05:57:48.087Z,84.83
2023-03-11T06:00:20.110Z,83.17
2023-03-11T06:02:51.314Z,83.98
2023-03-11T06:05:21.074Z,84.64
2023-03-11T06:07:51.150Z,84.87
2023-03-11T06:10:21.136Z,84.19
2023-03-11T06:12:51.319Z,84.82
2023-03-11T06:15:25.723Z,83.22
2023-03-11T06:17:55.719Z,84.22
2023-03-11T06:20:26.529Z,84.39
2023-03-11T06:22:56.904Z,84.01
2023-03-11T06:25:26.974Z,83.97
2023-03-11T06:27:57.108Z,84.36
2023-03-11T06:30:26.702Z,84.15
2023-03-11T06:33:00.755Z,83.77
2023-03-11T06:35:30.741Z,83.90
2023-03-11T06:38:00.633Z,83.59
2023-03-11T06:40:30.430Z,83.37
2023-03-11T06:43:00.384Z,83.34
2023-03-11T06:45:32.193Z,83.34
2023-03-11T06:48:02.360Z,82.96
2023-03-11T06:50:32.696Z,83.80
2023-03-11T06:53:05.315Z,82.75
2023-03-11T06:55:36.395Z,82.84
2023-03-11T06:58:06.738Z,82.02
2023-03-11T07:00:37.571Z,81.35
2023-03-11T07:03:07.478Z,80.69
2023-03-11T07:05:37.519Z,80.32
2023-03-11T07:08:09.329Z,79.58
2023-03-11T07:10:39.283Z,79.29
2023-03-11T07:13:09.334Z,79.58
2023-03-11T07:15:39.149Z,79.16
2023-03-11T07:18:09.265Z,79.25
2023-03-11T07:20:39.232Z,78.41
2023-03-11T07:23:09.265Z,78.65
2023-03-11T07:25:39.360Z,77.61
2023-03-11T07:28:09.398Z,76.36
2023-03-11T07:30:40.695Z,75.72
2023-03-11T07:33:10.751Z,76.51
2023-03-11T07:35:40.302Z,77.25
2023-03-11T07:38:10.434Z,75.90
2023-03-11T07:40:40.211Z,76.49
2023-03-11T07:43:10.399Z,72.66
2023-03-11T07:45:40.730Z,75.88
2023-03-11T07:48:10.824Z,73.73
2023-03-11T07:50:42.443Z,75.12
2023-03-11T07:53:12.542Z,74.07
2023-03-11T07:55:42.304Z,74.70
2023-03-11T07:58:12.150Z,75.05
2023-03-11T08:00:42.025Z,76.08
2023-03-11T08:03:12.102Z,69.70
2023-03-11T08:05:41.826Z,73.56
2023-03-11T08:08:12.041Z,71.79
2023-03-11T08:10:41.846Z,72.29
2023-03-11T08:13:11.993Z,69.18
2023-03-11T08:15:41.763Z,66.80
2023-03-11T08:18:11.946Z,66.83
2023-03-11T08:20:41.794Z,65.28
2023-03-11T08:23:11.825Z,68.75
2023-03-11T08:25:42.348Z,68.94
2023-03-11T08:28:12.397Z,65.64
2023-03-11T08:30:42.168Z,67.83
2023-03-11T08:33:12.290Z,66.79
2023-03-11T08:35:42.411Z,65.70
2023-03-11T08:38:12.740Z,66.47
2023-03-11T08:40:42.855Z,63.81
2023-03-11T08:43:16.615Z,66.88
2023-03-11T08:45:46.822Z,67.19
2023-03-11T08:48:17.015Z,67.19
2023-03-11T08:50:53.766Z,61.17
2023-03-11T08:53:18.670Z,61.85
2023-03-11T08:55:48.445Z,61.92
2023-03-11T08:58:21.335Z,61.92
2023-03-11T09:00:51.135Z,63.55
2023-03-11T09:03:20.949Z,67.91
2023-03-11T09:05:52.358Z,67.96
2023-03-11T09:08:22.225Z,68.64
2023-03-11T09:10:51.997Z,65.19
2023-03-11T09:13:21.895Z,66.50
2023-03-11T09:15:52.466Z,67.23
2023-03-11T09:18:22.735Z,63.91
2023-03-11T09:20:54.474Z,63.91
2023-03-11T09:23:24.265Z,63.08
2023-03-11T09:25:54.392Z,68.82
2023-03-11T09:28:24.911Z,63.20
2023-03-11T09:30:54.769Z,69.62
2023-03-11T09:33:25.327Z,60.43
2023-03-11T09:35:55.468Z,68.25
2023-03-11T09:38:25.487Z,68.25
2023-03-11T09:41:31.035Z,59.76
2023-03-11T09:44:23.151Z,59.76
2023-03-11T09:47:05.069Z,53.12
2023-03-11T09:49:58.827Z,57.82
2023-03-11T09:52:37.627Z,63.93
2023-03-11T09:55:20.425Z,63.55
2023-03-11T09:57:51.337Z,63.55
2023-03-11T10:00:23.737Z,60.65
2023-03-11T10:02:53.936Z,61.00
2023-03-11T10:05:29.130Z,63.23
2023-03-11T10:08:06.788Z,58.04
2023-03-11T10:10:39.566Z,55.97
2023-03-11T10:13:33.316Z,63.17
2023-03-11T10:16:18.002Z,58.17
2023-03-11T10:19:08.499Z,64.35
2023-03-11T10:21:43.907Z,59.90
2023-03-11T10:24:16.473Z,57.13
2023-03-11T10:26:49.571Z,61.16
2023-03-11T10:29:28.647Z,60.21
2023-03-11T10:32:10.138Z,54.83
2023-03-11T10:34:51.675Z,50.45
2023-03-11T10:37:48.681Z,50.45
2023-03-11T10:40:24.107Z,51.45
2023-03-11T10:42:56.969Z,58.79
2023-03-11T10:45:28.345Z,57.71
2023-03-11T10:47:58.760Z,54.91
2023-03-11T10:50:28.604Z,57.55
2023-03-11T10:53:19.136Z,54.57
2023-03-11T10:55:54.852Z,58.04
2023-03-11T10:58:28.215Z,54.57
2023-03-11T11:01:02.991Z,54.23
2023-03-11T11:03:34.799Z,53.84
2023-03-11T11:06:07.800Z,55.98
2023-03-11T11:08:37.627Z,51.97
2023-03-11T11:11:10.429Z,52.95
2023-03-11T11:13:40.172Z,51.98
2023-03-11T11:16:21.850Z,51.24
2023-03-11T11:18:54.217Z,49.88
2023-03-11T11:21:43.392Z,51.12
2023-03-11T11:24:32.260Z,53.31
2023-03-11T11:27:19.853Z,53.92
2023-03-11T11:30:10.520Z,53.92
2023-03-11T11:32:40.448Z,57.07
2023-03-11T11:35:19.892Z,54.20
2023-03-11T11:37:52.834Z,55.23
2023-03-11T11:40:28.501Z,53.98
2023-03-11T11:43:09.413Z,52.55
2023-03-11T11:45:42.724Z,51.24
2023-03-11T11:48:22.239Z,55.22
2023-03-11T11:51:01.116Z,50.21
2023-03-11T11:53:39.706Z,52.83
2023-03-11T11:56:09.782Z,52.62
2023-03-11T11:58:41.635Z,48.57
2023-03-11T12:01:25.832Z,48.57
2023-03-11T12:04:10.425Z,50.39
2023-03-11T12:06:43.290Z,47.56
2023-03-11T12:09:20.649Z,48.36
2023-03-11T12:11:59.103Z,52.08
2023-03-11T12:14:31.940Z,51.57
2023-03-11T12:17:05.936Z,48.85
2023-03-11T12:19:38.726Z,47.75
2023-03-11T12:22:27.385Z,47.75
2023-03-11T12:25:22.314Z,44.05
2023-03-11T12:28:26.479Z,45.11
2023-03-11T12:30:59.724Z,45.87
2023-03-11T12:33:32.654Z,47.31
2023-03-11T12:36:03.170Z,48.19
2023-03-11T12:38:44.217Z,46.32
2023-03-11T12:41:42.799Z,46.32
2023-03-11T12:44:28.871Z,44.11
2023-03-11T12:47:04.568Z,43.74
2023-03-11T12:49:40.565Z,45.93
2023-03-11T12:52:14.156Z,44.65
2023-03-11T12:55:01.763Z,43.98
2023-03-11T12:57:39.924Z,44.08
2023-03-11T13:00:18.405Z,42.72
2023-03-11T13:03:16.856Z,42.72
2023-03-11T13:05:52.558Z,43.38
2023-03-11T13:08:27.844Z,45.58
2023-03-11T13:10:58.726Z,45.92
2023-03-11T13:13:42.125Z,45.20
2023-03-11T13:16:17.291Z,46.60
2023-03-11T13:18:48.678Z,42.55
2023-03-11T13:21:34.555Z,43.63
2023-03-11T13:24:31.857Z,45.37
2023-03-11T13:27:05.113Z,42.98
2023-03-11T13:29:37.982Z,43.69
2023-03-11T13:32:44.288Z,44.84
2023-03-11T13:35:48.411Z,43.12
2023-03-11T13:38:26.769Z,44.17
2023-03-11T13:40:56.651Z,41.61
2023-03-11T13:43:27.353Z,40.04
2023-03-11T13:46:22.578Z,40.80
2023-03-11T13:48:55.355Z,41.57
2023-03-11T13:51:30.547Z,41.80
2023-03-11T13:54:22.877Z,45.21
2023-03-11T13:56:59.245Z,42.47
2023-03-11T13:59:35.110Z,42.49
2023-03-11T14:05:07.024Z,42.03
2023-03-11T14:07:38.582Z,43.33
2023-03-11T14:10:24.452Z,42.62
2023-03-11T14:13:13.452Z,43.23
2023-03-11T14:15:46.288Z,41.75
2023-03-11T14:18:31.103Z,41.75
2023-03-11T14:21:01.578Z,40.48
2023-03-11T14:23:39.913Z,40.48
2023-03-11T14:26:15.924Z,40.07
2023-03-11T14:28:49.437Z,39.88
2023-03-11T14:31:27.451Z,37.89
2023-03-11T14:34:04.722Z,40.81
2023-03-11T14:36:45.681Z,41.05
2023-03-11T14:39:30.562Z,42.02
2023-03-11T14:42:16.576Z,41.99
2023-03-11T14:44:49.288Z,41.26
2023-03-11T14:47:24.818Z,41.82
2023-03-11T14:49:55.737Z,41.55
2023-03-11T14:52:37.337Z,40.26
2023-03-11T14:55:11.395Z,40.26
2023-03-11T14:58:05.262Z,43.53
2023-03-11T15:00:40.433Z,42.87
2023-03-11T15:03:32.488Z,43.44
2023-03-11T15:06:14.427Z,43.69
2023-03-11T15:08:49.978Z,42.71
2023-03-11T15:11:22.618Z,42.70
2023-03-11T15:13:54.322Z,42.54
2023-03-11T15:16:35.501Z,43.11
2023-03-11T15:19:24.860Z,41.74
2023-03-11T15:21:57.158Z,41.95
2023-03-11T15:24:29.464Z,41.14
2023-03-11T15:27:02.569Z,42.47
2023-03-11T15:29:33.783Z,42.99
2023-03-11T15:32:22.953Z,42.61
2023-03-11T15:35:13.308Z,40.02
2023-03-11T15:37:44.579Z,41.18
2023-03-11T15:40:35.338Z,41.18
2023-03-11T15:43:17.659Z,43.04
2023-03-11T15:45:49.149Z,40.34
2023-03-11T15:48:19.041Z,42.00
2023-03-11T15:50:54.884Z,42.23
2023-03-11T15:53:27.376Z,41.93
2023-03-11T15:56:06.850Z,43.03
2023-03-11T15:58:35.101Z,42.48
2023-03-11T16:01:04.849Z,42.64
2023-03-11T16:03:35.031Z,42.28
2023-03-11T16:06:06.791Z,42.32
2023-03-11T16:08:36.618Z,41.16
2023-03-11T16:11:07.241Z,40.23
2023-03-11T16:13:37.110Z,40.78
2023-03-11T16:16:09.947Z,42.18
2023-03-11T16:18:39.705Z,43.66
2023-03-11T16:21:12.485Z,42.37
2023-03-11T16:23:51.616Z,41.68
2023-03-11T16:26:17.092Z,42.75
2023-03-11T16:28:47.024Z,42.47
2023-03-11T16:31:16.834Z,42.21
2023-03-11T16:33:46.592Z,42.92
2023-03-11T16:36:16.154Z,41.61
2023-03-11T16:38:48.664Z,43.34
2023-03-11T16:41:19.151Z,41.51
2023-03-11T16:43:49.426Z,42.47
2023-03-11T16:46:19.106Z,44.20
2023-03-11T16:48:48.889Z,42.19
2023-03-11T16:51:18.665Z,42.19
2023-03-11T16:53:48.400Z,43.58
2023-03-11T16:56:19.060Z,44.81
2023-03-11T16:58:49.377Z,44.81
2023-03-11T17:01:20.926Z,45.28
2023-03-11T17:03:51.960Z,46.82
2023-03-11T17:06:22.540Z,45.25
2023-03-11T17:08:52.317Z,48.31
2023-03-11T17:11:24.556Z,47.26
2023-03-11T17:13:58.618Z,47.92
2023-03-11T17:16:26.037Z,44.83
2023-03-11T17:18:55.802Z,47.04
2023-03-11T17:21:25.536Z,47.04
2023-03-11T17:23:55.492Z,48.14
2023-03-11T17:26:27.968Z,51.81
2023-03-11T17:28:58.160Z,50.88
2023-03-11T17:31:28.369Z,51.54
2023-03-11T17:33:59.309Z,51.67
2023-03-11T17:36:29.123Z,53.10
2023-03-11T17:38:58.942Z,53.86
2023-03-11T17:41:28.902Z,54.42
2023-03-11T17:43:58.713Z,56.68
2023-03-11T17:46:28.305Z,57.41
2023-03-11T17:48:58.074Z,57.38
2023-03-11T17:51:27.881Z,55.67
2023-03-11T17:53:57.773Z,54.73
2023-03-11T17:56:27.864Z,59.86
2023-03-11T17:59:01.612Z,58.54
2023-03-11T18:01:31.944Z,58.61
2023-03-11T18:04:01.912Z,56.37
2023-03-11T18:06:32.559Z,54.78
2023-03-11T18:09:02.446Z,55.82
2023-03-11T18:11:32.729Z,54.69
2023-03-11T18:14:02.500Z,56.10
2023-03-11T18:16:33.703Z,59.79
2023-03-11T18:19:03.563Z,61.21
2023-03-11T18:21:33.875Z,61.22
2023-03-11T18:24:03.667Z,61.29
2023-03-11T18:26:33.251Z,64.11
2023-03-11T18:29:03.103Z,65.19
2023-03-11T18:31:33.465Z,62.65
2023-03-11T18:34:05.128Z,65.19
2023-03-11T18:36:37.890Z,66.30
2023-03-11T18:39:10.116Z,64.43
2023-03-11T18:41:40.834Z,65.04
2023-03-11T18:44:11.356Z,65.04
2023-03-11T18:46:42.395Z,64.15
2023-03-11T18:49:14.149Z,63.51
2023-03-11T18:51:44.142Z,63.51
2023-03-11T18:54:13.893Z,66.84
2023-03-11T18:56:43.818Z,67.19
2023-03-11T18:59:14.320Z,67.99
2023-03-11T19:01:44.365Z,67.21
2023-03-11T19:04:14.620Z,63.57
2023-03-11T19:06:44.720Z,64.57
2023-03-11T19:09:14.765Z,67.99
2023-03-11T19:11:45.068Z,69.07
2023-03-11T19:14:14.862Z,69.27
2023-03-11T19:16:44.743Z,69.27
2023-03-11T19:19:14.675Z,69.16
2023-03-11T19:21:47.057Z,69.95
2023-03-11T19:24:16.846Z,69.57
2023-03-11T19:26:46.661Z,69.99
2023-03-11T19:29:16.784Z,70.14
2023-03-11T19:31:46.703Z,69.92
2023-03-11T19:34:16.976Z,69.20
2023-03-11T19:36:47.002Z,69.16
2023-03-11T19:39:16.791Z,68.85
2023-03-11T19:41:46.606Z,66.84
2023-03-11T19:44:16.189Z,68.61
2023-03-11T19:46:46.087Z,68.89
2023-03-11T19:49:16.406Z,69.16
2023-03-11T19:51:50.344Z,69.61
2023-03-11T19:54:17.558Z,69.50
2023-03-11T19:56:48.236Z,70.31
2023-03-11T19:59:18.143Z,70.26
2023-03-11T20:01:47.989Z,68.86
2023-03-11T20:04:17.822Z,68.86
2023-03-11T20:06:48.153Z,66.95
2023-03-11T20:09:18.247Z,67.51
2023-03-11T20:11:48.248Z,66.76
2023-03-11T20:14:18.022Z,65.05
2023-03-11T20:16:48.004Z,65.67
2023-03-11T20:19:18.155Z,63.25
2023-03-11T20:21:48.344Z,63.34
2023-03-11T20:24:18.050Z,62.18
2023-03-11T20:26:50.032Z,64.10
2023-03-11T20:29:20.103Z,64.10
2023-03-11T20:31:51.945Z,63.04
2023-03-11T20:34:22.027Z,66.45
2023-03-11T20:36:51.926Z,64.17
2023-03-11T20:39:21.862Z,62.66
2023-03-11T20:41:51.792Z,62.57
2023-03-11T20:44:21.580Z,63.05
2023-03-11T20:46:51.750Z,66.39
2023-03-11T20:49:21.754Z,64.33
2023-03-11T20:51:51.521Z,65.53
2023-03-11T20:54:21.388Z,65.04
2023-03-11T20:56:51.350Z,65.60
2023-03-11T20:59:21.460Z,66.26
2023-03-11T21:01:51.394Z,67.13
2023-03-11T21:04:21.437Z,68.10
2023-03-11T21:06:56.619Z,67.67
2023-03-11T21:09:26.610Z,66.51
2023-03-11T21:11:56.784Z,69.23
2023-03-11T21:14:26.658Z,70.11
2023-03-11T21:16:56.961Z,70.11
2023-03-11T21:19:26.922Z,68.95
2023-03-11T21:21:56.715Z,68.69
2023-03-11T21:24:26.488Z,68.09
2023-03-11T21:26:56.469Z,68.82
2023-03-11T21:29:26.561Z,67.96
2023-03-11T21:31:56.521Z,68.26
2023-03-11T21:34:26.830Z,67.72
2023-03-11T21:36:56.770Z,67.26
2023-03-11T21:39:26.422Z,67.08
2023-03-11T21:41:57.219Z,67.50
2023-03-11T21:44:26.893Z,67.12
2023-03-11T21:46:57.063Z,68.95
2023-03-11T21:49:27.442Z,69.04
2023-03-11T21:51:57.240Z,67.45
2023-03-11T21:54:26.859Z,66.58
2023-03-11T21:56:57.232Z,65.99
2023-03-11T21:59:27.088Z,66.08
2023-03-11T22:01:58.643Z,65.92
2023-03-11T22:04:28.502Z,65.68
2023-03-11T22:06:58.443Z,67.81
2023-03-11T22:09:28.343Z,65.64
2023-03-11T22:11:58.471Z,65.38
2023-03-11T22:14:28.203Z,65.40
2023-03-11T22:16:58.148Z,65.36
2023-03-11T22:19:28.334Z,67.30
2023-03-11T22:21:58.293Z,65.86
2023-03-11T22:24:28.173Z,66.23
2023-03-11T22:26:57.901Z,65.58
2023-03-11T22:29:28.112Z,65.04
2023-03-11T22:31:57.972Z,65.06
2023-03-11T22:34:27.789Z,65.89
2023-03-11T22:36:57.951Z,65.30
2023-03-11T22:39:27.880Z,66.34
2023-03-11T22:41:57.636Z,67.53
2023-03-11T22:44:27.287Z,65.62
2023-03-11T22:46:57.021Z,64.99
2023-03-11T22:49:26.801Z,65.33
2023-03-11T22:51:56.638Z,65.33
2023-03-11T22:54:26.594Z,65.13
2023-03-11T22:56:56.908Z,65.41
2023-03-11T22:59:28.380Z,65.08
2023-03-11T23:01:58.247Z,65.67
2023-03-11T23:04:27.889Z,64.87
2023-03-11T23:06:57.689Z,65.18
2023-03-11T23:09:27.835Z,65.87
2023-03-11T23:11:57.760Z,65.51
2023-03-11T23:14:37.873Z,65.49
2023-03-11T23:16:59.033Z,65.47
2023-03-11T23:19:28.834Z,65.27
2023-03-11T23:21:58.651Z,65.66
2023-03-11T23:24:28.527Z,66.56
2023-03-11T23:26:58.319Z,65.01
2023-03-11T23:29:28.179Z,65.18
2023-03-11T23:31:58.329Z,65.13
2023-03-11T23:34:27.823Z,64.86
2023-03-11T23:36:57.332Z,65.02
2023-03-11T23:39:27.205Z,64.92
2023-03-11T23:41:57.056Z,64.93
2023-03-11T23:44:27.483Z,65.01
2023-03-11T23:46:57.232Z,64.83
2023-03-11T23:49:27.117Z,66.00
2023-03-11T23:51:57.010Z,65.14
2023-03-11T23:54:26.539Z,65.22
2023-03-11T23:56:56.666Z,64.88
2023-03-11T23:59:26.767Z,65.05
